Time;durP1;ratioP1;P1;durP2;ratioP2;P2;SDS_P1;SDS_P2;PMS_P1;PMS_P2;Temp;Humidity;BMP_temperature;BMP_pressure;BME280_temperature;BME280_humidity;BME280_pressure;Samples;Min_cycle;Max_cycle;Signal;HPM_P1;HPM_P2
2023/07/14 00:03:18;;;;;;;5.82;2.22;;;;;16.60;101279.00;;;;10114605;29;20214;-77
2023/07/14 00:08:19;;;;;;;4.95;2.35;;;;;16.60;101272.00;;;;10111283;29;20203;-76
2023/07/14 00:13:21;;;;;;;8.35;3.08;;;;;16.50;101275.00;;;;10104598;29;20213;-76
2023/07/14 00:18:25;;;;;;;3.90;2.58;;;;;16.40;101274.00;;;;10111157;29;20279;-75
2023/07/14 00:23:26;;;;;;;9.13;2.50;;;;;16.30;101272.00;;;;10126447;29;20207;-77
2023/07/14 00:28:29;;;;;;;4.90;2.47;;;;;16.30;101275.00;;;;10125666;29;20286;-78
2023/07/14 00:33:32;;;;;;;3.80;2.15;;;;;16.20;101269.00;;;;10132218;29;20204;-76
2023/07/14 00:38:34;;;;;;;4.70;2.70;;;;;16.10;101259.00;;;;10130722;29;20321;-78
2023/07/14 00:43:36;;;;;;;5.32;2.60;;;;;16.10;101267.00;;;;10131182;29;20204;-75
2023/07/14 00:48:38;;;;;;;5.82;2.83;;;;;16.00;101263.00;;;;10123842;29;20666;-76
2023/07/14 00:53:43;;;;;;;6.15;2.90;;;;;15.90;101259.00;;;;10130378;29;20204;-77
2023/07/14 00:58:49;;;;;;;6.50;2.63;;;;;15.80;101249.00;;;;10075377;29;20208;-74
2023/07/14 01:03:52;;;;;;;8.90;3.47;;;;;15.70;101269.00;;;;10129706;29;20210;-74
2023/07/14 01:09:05;;;;;;;7.00;2.97;;;;;15.70;101253.00;;;;10118014;29;20214;-75
2023/07/14 01:14:18;;;;;;;5.55;2.75;;;;;15.70;101260.00;;;;10116865;29;20230;-74
2023/07/14 01:19:28;;;;;;;8.00;3.25;;;;;15.70;101250.00;;;;10144444;29;20215;-74
2023/07/14 01:24:38;;;;;;;6.45;3.15;;;;;15.70;101248.00;;;;10121469;29;20204;-74
2023/07/14 01:29:43;;;;;;;9.80;3.30;;;;;15.70;101253.00;;;;10112902;29;20295;-74
2023/07/14 01:34:45;;;;;;;5.63;3.00;;;;;15.70;101254.00;;;;10107427;29;20256;-76
2023/07/14 01:39:48;;;;;;;5.47;2.70;;;;;15.60;101252.00;;;;10131384;29;20220;-74
2023/07/14 01:44:50;;;;;;;8.65;3.10;;;;;15.60;101251.00;;;;10114229;29;20638;-74
2023/07/14 01:49:52;;;;;;;7.65;3.17;;;;;15.60;101247.00;;;;10133378;29;20203;-75
2023/07/14 01:55:10;;;;;;;6.47;3.28;;;;;15.50;101243.00;;;;10120913;29;20259;-74
2023/07/14 02:00:12;;;;;;;9.88;3.10;;;;;15.40;101239.00;;;;10130927;29;20219;-75
2023/07/14 02:05:33;;;;;;;5.00;3.03;;;;;15.50;101242.00;;;;10129129;29;20207;-75
2023/07/14 02:10:34;;;;;;;8.60;3.00;;;;;15.40;101232.00;;;;10121457;29;20207;-75
2023/07/14 02:15:36;;;;;;;8.38;3.50;;;;;15.40;101229.00;;;;10136780;29;20219;-74
2023/07/14 02:20:40;;;;;;;8.93;3.08;;;;;15.30;101223.00;;;;10135763;29;20214;-75
2023/07/14 02:25:46;;;;;;;8.73;3.50;;;;;15.30;101213.00;;;;10124251;29;20261;-74
2023/07/14 02:31:08;;;;;;;9.10;2.78;;;;;15.10;101211.00;;;;10106839;29;20263;-75
2023/07/14 02:36:32;;;;;;;5.70;2.80;;;;;15.00;101203.00;;;;10118613;29;20220;-74
2023/07/14 02:41:40;;;;;;;8.13;2.97;;;;;14.90;101203.00;;;;10127797;29;20234;-74
2023/07/14 02:47:05;;;;;;;6.70;3.13;;;;;14.90;101200.00;;;;10124513;29;20203;-74
2023/07/14 02:52:07;;;;;;;5.43;3.72;;;;;14.80;101201.00;;;;10133697;29;20199;-75
2023/07/14 02:57:08;;;;;;;4.47;3.00;;;;;14.80;101207.00;;;;10134794;29;20760;-74
2023/07/14 03:02:10;;;;;;;7.25;2.90;;;;;14.80;101201.00;;;;10134502;29;20265;-74
2023/07/14 03:07:11;;;;;;;7.00;3.28;;;;;14.80;101200.00;;;;10134064;29;20210;-75
2023/07/14 03:12:13;;;;;;;9.57;4.07;;;;;14.80;101193.00;;;;10133723;29;20211;-75
2023/07/14 03:17:14;;;;;;;7.03;2.90;;;;;14.80;101198.00;;;;10099957;29;20224;-74
2023/07/14 03:22:16;;;;;;;5.20;2.70;;;;;14.70;101191.00;;;;10095966;29;20200;-77
2023/07/14 03:27:17;;;;;;;4.82;3.13;;;;;14.60;101191.00;;;;10127714;29;20633;-75
2023/07/14 03:32:19;;;;;;;7.70;2.88;;;;;14.50;101188.00;;;;10133574;29;20214;-74
2023/07/14 03:37:20;;;;;;;5.03;3.00;;;;;14.50;101185.00;;;;10122590;29;20254;-74
2023/07/14 03:42:22;;;;;;;8.13;3.00;;;;;14.50;101184.00;;;;10133442;29;20204;-74
2023/07/14 03:47:24;;;;;;;4.30;3.00;;;;;14.50;101179.00;;;;10122074;29;20481;-74
2023/07/14 03:52:25;;;;;;;4.97;3.63;;;;;14.60;101178.00;;;;10125845;29;20347;-75
2023/07/14 03:57:27;;;;;;;6.23;3.33;;;;;14.70;101181.00;;;;10132986;29;20226;-75
2023/07/14 04:02:28;;;;;;;10.88;3.90;;;;;14.80;101181.00;;;;10134996;29;20207;-74
2023/07/14 04:07:29;;;;;;;5.65;3.25;;;;;14.80;101189.00;;;;10133902;29;20216;-74
2023/07/14 04:12:31;;;;;;;7.38;3.58;;;;;14.90;101185.00;;;;10131923;29;20211;-74
2023/07/14 04:17:33;;;;;;;6.88;3.75;;;;;14.90;101182.00;;;;10112841;29;20230;-74
2023/07/14 04:22:35;;;;;;;7.78;3.63;;;;;15.00;101177.00;;;;10125208;29;20211;-75
2023/07/14 04:27:37;;;;;;;7.63;3.88;;;;;15.00;101169.00;;;;10104118;29;20244;-76
2023/07/14 04:32:38;;;;;;;6.28;3.33;;;;;15.00;101176.00;;;;10131150;29;20200;-74
2023/07/14 04:37:40;;;;;;;5.60;3.65;;;;;15.00;101167.00;;;;10132012;29;20276;-74
2023/07/14 04:42:41;;;;;;;6.85;3.53;;;;;15.10;101171.00;;;;10129342;29;20241;-74
2023/07/14 04:47:43;;;;;;;10.20;3.75;;;;;15.20;101166.00;;;;10135246;29;20230;-74
2023/07/14 04:52:45;;;;;;;10.93;3.40;;;;;15.50;101160.00;;;;10111368;29;20215;-75
2023/07/14 04:57:46;;;;;;;5.28;3.30;;;;;15.90;101165.00;;;;10130515;29;20219;-74
2023/07/14 05:02:47;;;;;;;10.10;3.85;;;;;16.40;101158.00;;;;10121116;29;20207;-74
2023/07/14 05:07:49;;;;;;;5.45;3.42;;;;;17.00;101153.00;;;;10121452;29;20666;-74
2023/07/14 05:12:52;;;;;;;8.25;3.10;;;;;17.00;101165.00;;;;10120653;29;20655;-74
2023/07/14 05:17:55;;;;;;;6.32;3.03;;;;;17.00;101153.00;;;;10137215;29;20216;-75
2023/07/14 05:22:56;;;;;;;8.05;3.65;;;;;17.10;101152.00;;;;10130464;29;20207;-74
2023/07/14 05:27:58;;;;;;;6.22;2.90;;;;;17.30;101150.00;;;;10098986;29;20212;-74
2023/07/14 05:32:59;;;;;;;9.38;3.20;;;;;17.50;101149.00;;;;10121016;29;20204;-75
2023/07/14 05:38:02;;;;;;;9.48;3.10;;;;;17.90;101143.00;;;;10131102;29;20694;-75
2023/07/14 05:43:03;;;;;;;6.85;2.88;;;;;18.10;101160.00;;;;10126685;29;20213;-74
2023/07/14 05:48:05;;;;;;;5.65;3.03;;;;;18.70;101158.00;;;;10119697;29;20662;-76
2023/07/14 05:53:06;;;;;;;4.50;3.08;;;;;19.30;101162.00;;;;10136384;29;21133;-75
2023/07/14 05:58:07;;;;;;;7.65;3.22;;;;;19.40;101148.00;;;;10127180;29;20253;-74
2023/07/14 06:03:16;;;;;;;6.75;3.25;;;;;19.80;101150.00;;;;10163778;29;20226;-75
2023/07/14 06:08:18;;;;;;;8.02;2.70;;;;;19.90;101144.00;;;;10115412;29;20294;-77
2023/07/14 06:13:24;;;;;;;6.25;2.97;;;;;19.90;101150.00;;;;10133858;29;20203;-74
2023/07/14 06:18:25;;;;;;;3.85;2.83;;;;;19.90;101132.00;;;;10133698;29;20227;-75
2023/07/14 06:23:27;;;;;;;7.20;2.67;;;;;20.00;101135.00;;;;10136394;29;20678;-75
2023/07/14 06:28:28;;;;;;;4.65;2.47;;;;;20.20;101118.00;;;;10135614;29;20246;-75
2023/07/14 06:33:30;;;;;;;5.50;2.60;;;;;20.40;101108.00;;;;10135750;29;20623;-75
2023/07/14 06:38:34;;;;;;;5.15;2.75;;;;;20.20;101109.00;;;;10134975;29;20272;-74
2023/07/14 06:43:36;;;;;;;5.30;3.00;;;;;20.30;101107.00;;;;10119407;29;20283;-76
2023/07/14 06:48:38;;;;;;;5.60;2.90;;;;;20.60;101104.00;;;;10134710;29;20211;-75
2023/07/14 06:53:40;;;;;;;8.52;3.35;;;;;21.00;101104.00;;;;10135234;29;20302;-75
2023/07/14 06:58:41;;;;;;;5.78;2.72;;;;;21.10;101092.00;;;;10123450;29;20231;-74
2023/07/14 07:03:43;;;;;;;4.35;2.70;;;;;21.30;101087.00;;;;10116751;29;20235;-75
2023/07/14 07:08:48;;;;;;;5.03;2.83;;;;;21.40;101079.00;;;;10118733;29;20200;-76
2023/07/14 07:13:49;;;;;;;3.63;2.35;;;;;21.50;101086.00;;;;10108787;29;20232;-75
2023/07/14 07:18:51;;;;;;;5.97;2.70;;;;;21.90;101080.00;;;;10118138;29;20219;-76
2023/07/14 07:23:52;;;;;;;4.45;2.40;;;;;22.30;101080.00;;;;10133045;29;20227;-76
2023/07/14 07:28:53;;;;;;;4.72;2.58;;;;;22.20;101082.00;;;;10126059;29;20216;-78
2023/07/14 07:33:55;;;;;;;3.70;2.30;;;;;23.20;101062.00;;;;10108280;29;20235;-75
2023/07/14 07:38:56;;;;;;;4.63;2.28;;;;;23.50;101067.00;;;;10133086;29;20226;-75
2023/07/14 07:43:58;;;;;;;4.03;2.15;;;;;23.40;101062.00;;;;10124524;29;20263;-75
2023/07/14 07:49:00;;;;;;;5.47;2.55;;;;;24.40;101051.00;;;;10102767;29;20688;-75
2023/07/14 07:54:01;;;;;;;4.35;2.55;;;;;25.80;101042.00;;;;10121788;29;20630;-75
2023/07/14 07:59:03;;;;;;;7.22;2.47;;;;;26.70;101031.00;;;;10113160;29;20650;-76
2023/07/14 08:04:04;;;;;;;4.35;2.20;;;;;27.20;101023.00;;;;10116348;29;20206;-76
2023/07/14 08:09:08;;;;;;;5.75;2.15;;;;;27.20;101022.00;;;;10111798;29;20211;-75
2023/07/14 08:14:18;;;;;;;4.78;2.35;;;;;27.70;101011.00;;;;10124118;29;20294;-75
2023/07/14 08:19:20;;;;;;;4.97;2.15;;;;;28.70;101007.00;;;;10127844;29;20220;-75
2023/07/14 08:24:21;;;;;;;3.75;2.00;;;;;29.10;101004.00;;;;10127577;29;20635;-80
2023/07/14 08:29:22;;;;;;;3.80;1.92;;;;;29.00;101003.00;;;;10124111;29;20684;-76
2023/07/14 08:34:27;;;;;;;4.18;1.77;;;;;28.60;101010.00;;;;10127184;29;20586;-76
2023/07/14 08:39:28;;;;;;;5.47;2.17;;;;;28.20;100993.00;;;;10112054;29;20223;-75
2023/07/14 08:44:38;;;;;;;7.20;2.00;;;;;28.40;100996.00;;;;10130963;29;20213;-75
2023/07/14 08:50:00;;;;;;;4.47;2.13;;;;;28.60;100979.00;;;;10127340;29;20635;-75
2023/07/14 08:55:11;;;;;;;3.92;2.38;;;;;29.30;100977.00;;;;10121967;29;20223;-75
2023/07/14 09:00:36;;;;;;;4.07;2.30;;;;;28.90;100972.00;;;;10115863;29;20290;-75
2023/07/14 09:06:09;;;;;;;4.05;2.28;;;;;28.70;100960.00;;;;10102969;29;20207;-75
2023/07/14 09:11:37;;;;;;;5.43;2.55;;;;;28.70;100958.00;;;;10140711;29;20210;-75
2023/07/14 09:16:52;;;;;;;5.53;2.13;;;;;28.70;100963.00;;;;10114636;29;20227;-76
2023/07/14 09:22:11;;;;;;;6.18;2.60;;;;;29.80;100944.00;;;;10131314;29;20214;-75
2023/07/14 09:27:21;;;;;;;5.25;2.53;;;;;30.00;100941.00;;;;10134976;29;20214;-75
2023/07/14 09:32:35;;;;;;;9.25;3.20;;;;;29.50;100934.00;;;;10138193;29;20196;-75
2023/07/14 09:37:47;;;;;;;6.32;2.75;;;;;29.20;100915.00;;;;10139682;29;20234;-75
2023/07/14 09:42:52;;;;;;;5.53;2.67;;;;;28.70;100900.00;;;;10138837;29;20214;-75
2023/07/14 09:48:05;;;;;;;8.70;3.25;;;;;28.50;100885.00;;;;10139359;29;20215;-75
2023/07/14 09:53:07;;;;;;;5.95;2.90;;;;;29.70;100880.00;;;;10138392;29;20196;-75
2023/07/14 09:58:14;;;;;;;5.05;2.95;;;;;30.00;100872.00;;;;10133923;29;20270;-75
2023/07/14 10:03:16;;;;;;;6.15;2.72;;;;;29.40;100864.00;;;;10124288;29;20207;-75
2023/07/14 10:08:44;;;;;;;5.40;3.17;;;;;29.50;100862.00;;;;10147305;29;20208;-75
2023/07/14 10:14:05;;;;;;;3.95;2.83;;;;;29.90;100877.00;;;;10133525;29;20207;-76
2023/07/14 10:19:21;;;;;;;5.90;3.13;;;;;30.40;100871.00;;;;10127298;29;20216;-75
2023/07/14 10:24:24;;;;;;;5.00;2.92;;;;;30.00;100872.00;;;;10128452;29;20218;-77
2023/07/14 10:29:27;;;;;;;6.97;3.55;;;;;29.40;100854.00;;;;10099777;29;20204;-76
2023/07/14 10:34:53;;;;;;;7.05;3.33;;;;;28.80;100848.00;;;;10100096;29;20698;-77
2023/07/14 10:40:09;;;;;;;5.43;3.03;;;;;28.70;100822.00;;;;10101424;29;20208;-77
2023/07/14 10:45:13;;;;;;;5.93;2.65;;;;;28.50;100822.00;;;;10113167;29;20294;-77
2023/07/14 10:50:18;;;;;;;4.45;2.20;;;;;28.90;100827.00;;;;10116373;29;20736;-77
2023/07/14 10:55:25;;;;;;;5.57;2.63;;;;;29.90;100815.00;;;;10120134;29;20220;-78
2023/07/14 11:00:51;;;;;;;3.58;2.30;;;;;31.10;100805.00;;;;10113090;29;20522;-76
2023/07/14 11:06:20;;;;;;;4.55;2.45;;;;;32.30;100797.00;;;;10110993;29;20248;-76
2023/07/14 11:11:39;;;;;;;5.32;2.40;;;;;32.50;100797.00;;;;10122693;29;20321;-75
2023/07/14 11:16:46;;;;;;;5.03;1.80;;;;;32.60;100791.00;;;;10112243;29;20574;-74
2023/07/14 11:22:03;;;;;;;2.40;1.80;;;;;32.30;100781.00;;;;10134989;29;20238;-75
2023/07/14 11:27:37;;;;;;;4.07;2.13;;;;;32.10;100774.00;;;;10146872;29;20218;-75
2023/07/14 11:32:46;;;;;;;4.82;2.10;;;;;33.10;100781.00;;;;10138870;29;20199;-75
2023/07/14 11:38:27;;;;;;;5.70;2.45;;;;;33.10;100770.00;;;;10117412;29;20219;-75
2023/07/14 11:43:30;;;;;;;2.35;1.75;;;;;33.40;100756.00;;;;10149777;29;20214;-74
2023/07/14 11:48:43;;;;;;;2.75;2.10;;;;;32.90;100747.00;;;;10128989;29;20547;-74
2023/07/14 11:54:06;;;;;;;3.58;2.10;;;;;33.20;100733.00;;;;10103729;29;20286;-74
2023/07/14 11:59:19;;;;;;;3.30;2.13;;;;;32.30;100735.00;;;;10129855;29;20234;-74
2023/07/14 12:04:22;;;;;;;5.47;2.30;;;;;31.60;100723.00;;;;10120508;29;20251;-74
2023/07/14 12:09:24;;;;;;;4.80;1.98;;;;;32.30;100711.00;;;;10133908;29;20661;-74
2023/07/14 12:14:35;;;;;;;6.00;2.17;;;;;32.30;100700.00;;;;10133775;29;20248;-75
2023/07/14 12:19:48;;;;;;;5.32;2.25;;;;;32.20;100693.00;;;;10135745;29;20745;-76
2023/07/14 12:24:50;;;;;;;4.90;2.00;;;;;32.50;100688.00;;;;10109681;29;20658;-75
2023/07/14 12:30:03;;;;;;;4.57;2.47;;;;;33.80;100676.00;;;;10095697;29;20193;-75
2023/07/14 12:35:15;;;;;;;2.65;2.20;;;;;33.00;100670.00;;;;10095755;29;20219;-75
2023/07/14 12:40:23;;;;;;;4.85;2.50;;;;;32.80;100644.00;;;;10114478;29;20677;-75
2023/07/14 12:45:24;;;;;;;3.45;2.35;;;;;32.20;100650.00;;;;10155137;29;20250;-75
2023/07/14 12:50:27;;;;;;;5.10;2.55;;;;;31.50;100644.00;;;;10143973;29;20208;-75
2023/07/14 12:55:30;;;;;;;4.95;2.60;;;;;30.70;100628.00;;;;10128845;29;20224;-76
2023/07/14 13:00:32;;;;;;;5.50;2.97;;;;;30.30;100616.00;;;;10132736;29;20238;-75
2023/07/14 13:05:38;;;;;;;4.38;2.80;;;;;29.90;100606.00;;;;10130699;29;20203;-75
2023/07/14 13:10:42;;;;;;;4.07;3.05;;;;;29.70;100609.00;;;;10146292;29;20212;-76
2023/07/14 13:15:43;;;;;;;5.75;3.05;;;;;29.50;100600.00;;;;10102861;29;20594;-75
2023/07/14 13:20:45;;;;;;;3.83;2.70;;;;;29.60;100578.00;;;;10120491;29;20195;-76
2023/07/14 13:26:05;;;;;;;3.15;2.28;;;;;29.50;100581.00;;;;10124046;29;20208;-75
2023/07/14 13:31:17;;;;;;;4.00;2.45;;;;;29.20;100564.00;;;;10140836;29;20219;-75
2023/07/14 13:36:25;;;;;;;5.20;2.70;;;;;29.20;100554.00;;;;10138929;29;20364;-74
2023/07/14 13:41:28;;;;;;;4.50;2.85;;;;;29.00;100538.00;;;;10140508;29;20363;-75
2023/07/14 13:46:33;;;;;;;4.13;2.60;;;;;29.10;100533.00;;;;10141789;29;20207;-74
2023/07/14 13:51:35;;;;;;;5.47;2.75;;;;;28.50;100523.00;;;;10142179;29;20654;-75
2023/07/14 13:56:36;;;;;;;5.38;2.88;;;;;28.10;100504.00;;;;10124516;29;20215;-75
2023/07/14 14:01:38;;;;;;;4.00;2.83;;;;;27.90;100507.00;;;;10124080;29;20570;-74
2023/07/14 14:06:41;;;;;;;2.75;2.10;;;;;28.10;100486.00;;;;10134242;29;20239;-74
2023/07/14 14:11:43;;;;;;;3.72;2.30;;;;;28.30;100469.00;;;;10138564;29;20671;-74
2023/07/14 14:16:48;;;;;;;4.32;2.90;;;;;28.50;100463.00;;;;10137946;29;20231;-74
2023/07/14 14:21:51;;;;;;;3.92;2.65;;;;;29.20;100457.00;;;;10137904;29;20688;-74
2023/07/14 14:26:52;;;;;;;5.90;2.47;;;;;29.50;100448.00;;;;10138978;29;20254;-75
2023/07/14 14:31:54;;;;;;;4.28;2.45;;;;;30.10;100438.00;;;;10113093;29;20612;-75
2023/07/14 14:36:55;;;;;;;5.55;3.00;;;;;30.80;100427.00;;;;10100269;29;20216;-75
2023/07/14 14:41:57;;;;;;;4.03;2.65;;;;;30.90;100428.00;;;;10123315;29;20286;-75
2023/07/14 14:47:00;;;;;;;3.50;2.13;;;;;31.10;100424.00;;;;10138268;29;20216;-75
2023/07/14 14:52:03;;;;;;;4.68;2.55;;;;;31.00;100410.00;;;;10117783;29;20215;-74
2023/07/14 14:57:07;;;;;;;4.45;2.42;;;;;31.00;100407.00;;;;10136731;29;20215;-75
2023/07/14 15:02:14;;;;;;;3.47;1.88;;;;;30.50;100396.00;;;;10107342;29;20594;-75
2023/07/14 15:07:16;;;;;;;4.15;2.10;;;;;30.40;100370.00;;;;10123787;29;20210;-77
2023/07/14 15:12:19;;;;;;;3.65;2.03;;;;;31.60;100365.00;;;;10128891;29;20279;-75
2023/07/14 15:17:27;;;;;;;5.32;2.00;;;;;31.90;100346.00;;;;10119914;29;20220;-75
2023/07/14 15:22:30;;;;;;;5.07;1.95;;;;;32.00;100340.00;;;;10116084;29;20244;-75
2023/07/14 15:27:34;;;;;;;4.63;2.00;;;;;31.20;100335.00;;;;10135602;29;20586;-75
2023/07/14 15:32:35;;;;;;;6.40;1.90;;;;;31.50;100319.00;;;;10114486;29;20208;-75
2023/07/14 15:37:40;;;;;;;4.07;1.70;;;;;32.90;100302.00;;;;10098430;29;20216;-75
2023/07/14 15:42:42;;;;;;;3.30;1.75;;;;;33.30;100289.00;;;;10099541;29;20222;-75
2023/07/14 15:47:44;;;;;;;3.70;2.03;;;;;33.10;100283.00;;;;10096850;29;20256;-75
2023/07/14 15:52:49;;;;;;;2.78;1.60;;;;;32.10;100279.00;;;;10097957;29;20279;-75
2023/07/14 15:57:51;;;;;;;4.18;1.80;;;;;30.70;100259.00;;;;10097885;29;20262;-75
2023/07/14 16:02:52;;;;;;;2.70;1.80;;;;;30.00;100249.00;;;;10098480;29;20232;-75
2023/07/14 16:07:56;;;;;;;2.97;1.52;;;;;29.50;100238.00;;;;10097435;29;20643;-75
2023/07/14 16:12:58;;;;;;;4.30;1.70;;;;;29.00;100224.00;;;;10097669;29;20196;-75
2023/07/14 16:17:59;;;;;;;6.20;1.92;;;;;28.60;100204.00;;;;10081274;29;20239;-76
2023/07/14 16:23:02;;;;;;;5.28;1.80;;;;;28.40;100206.00;;;;10098056;29;20200;-75
2023/07/14 16:28:04;;;;;;;3.72;2.25;;;;;28.30;100192.00;;;;10098265;29;20212;-75
2023/07/14 16:33:06;;;;;;;4.72;1.55;;;;;28.00;100190.00;;;;10098001;29;20232;-75
2023/07/14 16:38:37;;;;;;;6.10;2.00;;;;;28.00;100176.00;;;;10103492;29;20307;-75
2023/07/14 16:43:39;;;;;;;2.75;1.75;;;;;28.30;100173.00;;;;10096848;29;20251;-75
2023/07/14 16:48:40;;;;;;;4.32;2.17;;;;;28.50;100169.00;;;;10103008;29;20219;-75
2023/07/14 16:53:42;;;;;;;8.18;2.30;;;;;28.30;100157.00;;;;10102456;29;20274;-75
2023/07/14 16:58:43;;;;;;;6.07;1.90;;;;;28.00;100163.00;;;;10102352;29;20223;-75
2023/07/14 17:03:45;;;;;;;6.93;2.08;;;;;28.10;100163.00;;;;10102492;29;20212;-75
2023/07/14 17:08:47;;;;;;;4.82;2.10;;;;;28.60;100165.00;;;;10103051;29;20710;-75
2023/07/14 17:13:49;;;;;;;3.05;1.98;;;;;28.90;100155.00;;;;10085983;29;20223;-75
2023/07/14 17:18:50;;;;;;;7.05;2.42;;;;;28.30;100138.00;;;;10102623;29;20220;-75
2023/07/14 17:23:51;;;;;;;4.97;2.00;;;;;28.20;100130.00;;;;10102956;29;20244;-76
2023/07/14 17:28:52;;;;;;;4.50;2.00;;;;;27.70;100139.00;;;;10086910;29;20259;-75
2023/07/14 17:33:54;;;;;;;4.60;1.90;;;;;27.40;100138.00;;;;10101103;29;20626;-75
2023/07/14 17:38:55;;;;;;;4.57;1.90;;;;;27.30;100134.00;;;;10101841;29;20216;-76
2023/07/14 17:43:58;;;;;;;6.53;2.20;;;;;27.30;100138.00;;;;10101035;29;20204;-75
2023/07/14 17:49:00;;;;;;;4.28;1.90;;;;;27.30;100124.00;;;;10101716;29;20208;-76
2023/07/14 17:54:24;;;;;;;4.97;2.10;;;;;27.30;100120.00;;;;10101586;29;20204;-76
2023/07/14 17:59:28;;;;;;;6.60;2.22;;;;;27.30;100116.00;;;;10101562;29;20307;-75
2023/07/14 18:04:29;;;;;;;7.25;2.38;;;;;27.20;100098.00;;;;10086069;29;20257;-75
2023/07/14 18:09:31;;;;;;;6.57;2.15;;;;;27.10;100097.00;;;;10102121;29;20282;-75
2023/07/14 18:14:32;;;;;;;6.35;2.10;;;;;26.80;100087.00;;;;10099968;29;20650;-75
2023/07/14 18:19:34;;;;;;;5.03;1.88;;;;;26.70;100073.00;;;;10101753;29;20551;-75
2023/07/14 18:24:36;;;;;;;6.22;1.90;;;;;26.40;100060.00;;;;10100848;29;20200;-76
2023/07/14 18:29:46;;;;;;;5.20;2.38;;;;;26.40;100063.00;;;;10070449;29;20252;-75
2023/07/14 18:34:47;;;;;;;4.82;1.83;;;;;26.30;100044.00;;;;10099328;29;20204;-75
2023/07/14 18:39:50;;;;;;;8.95;2.20;;;;;26.20;100036.00;;;;10100778;29;20200;-75
2023/07/14 18:44:52;;;;;;;3.42;2.22;;;;;26.10;100032.00;;;;10100914;29;20201;-75
2023/07/14 18:49:53;;;;;;;5.35;2.22;;;;;25.90;100031.00;;;;10101228;29;20201;-75
2023/07/14 18:54:55;;;;;;;6.68;2.40;;;;;25.70;100029.00;;;;10101257;29;20231;-75
2023/07/14 18:59:57;;;;;;;4.93;2.15;;;;;25.40;100024.00;;;;10100125;29;20200;-74
2023/07/14 19:04:59;;;;;;;4.10;2.38;;;;;25.50;100022.00;;;;10100384;29;20559;-74
2023/07/14 19:10:04;;;;;;;3.60;2.28;;;;;25.60;100018.00;;;;10101265;29;20211;-75
2023/07/14 19:15:20;;;;;;;7.97;2.17;;;;;25.20;100008.00;;;;10083109;29;20257;-75
2023/07/14 19:20:22;;;;;;;5.68;2.55;;;;;24.80;100004.00;;;;10099900;29;20286;-75
2023/07/14 19:25:23;;;;;;;8.00;2.40;;;;;24.40;100016.00;;;;10099057;29;20212;-75
2023/07/14 19:30:34;;;;;;;8.05;2.42;;;;;24.10;100003.00;;;;10099998;29;20286;-75
2023/07/14 19:35:37;;;;;;;2.78;2.00;;;;;23.80;99997.00;;;;10097715;29;20240;-75
2023/07/14 19:40:39;;;;;;;4.57;2.10;;;;;23.70;99986.00;;;;10099492;29;20228;-75
2023/07/14 19:45:41;;;;;;;5.30;2.40;;;;;23.60;99987.00;;;;10082736;29;20196;-75
2023/07/14 19:50:44;;;;;;;10.10;2.42;;;;;23.50;99991.00;;;;10082015;29;20563;-75
2023/07/14 19:55:45;;;;;;;7.80;2.53;;;;;23.40;99994.00;;;;10098184;29;20591;-75
2023/07/14 20:00:49;;;;;;;5.75;2.53;;;;;23.30;99993.00;;;;10096879;29;20555;-79
2023/07/14 20:05:51;;;;;;;10.57;2.50;;;;;23.30;99997.00;;;;10097375;29;20204;-75
2023/07/14 20:11:03;;;;;;;9.73;2.53;;;;;23.30;99994.00;;;;10097679;29;20288;-75
2023/07/14 20:16:04;;;;;;;4.03;2.22;;;;;23.10;99988.00;;;;10097708;29;20224;-77
2023/07/14 20:21:16;;;;;;;6.70;2.42;;;;;23.00;99979.00;;;;10097785;29;20200;-75
2023/07/14 20:26:17;;;;;;;2.90;2.00;;;;;23.00;99976.00;;;;10098181;29;20664;-80
2023/07/14 20:31:21;;;;;;;7.75;2.30;;;;;23.00;99973.00;;;;10097881;29;20208;-75
2023/07/14 20:36:24;;;;;;;3.92;2.17;;;;;23.00;99958.00;;;;10097504;29;20216;-80
2023/07/14 20:41:28;;;;;;;6.85;2.30;;;;;22.90;99953.00;;;;10097237;29;20200;-79
2023/07/14 20:46:35;;;;;;;8.13;2.78;;;;;22.80;99964.00;;;;10096067;29;20208;-75
2023/07/14 20:51:37;;;;;;;8.15;2.60;;;;;22.80;99958.00;;;;10095360;29;20197;-78
2023/07/14 20:56:38;;;;;;;5.28;2.40;;;;;22.90;99954.00;;;;10095639;29;20220;-79
2023/07/14 21:01:40;;;;;;;3.50;2.22;;;;;22.90;99953.00;;;;10096740;29;20655;-79
2023/07/14 21:06:42;;;;;;;5.40;2.45;;;;;22.80;99949.00;;;;10097987;29;20674;-81
2023/07/14 21:11:44;;;;;;;4.43;2.13;;;;;22.80;99936.00;;;;10095829;29;20287;-79
2023/07/14 21:16:45;;;;;;;6.88;2.55;;;;;22.70;99940.00;;;;10097035;29;20629;-75
2023/07/14 21:21:46;;;;;;;2.33;2.00;;;;;22.70;99931.00;;;;10099905;29;20231;-79
2023/07/14 21:26:48;;;;;;;6.30;2.67;;;;;22.70;99929.00;;;;10087206;29;20660;-75
2023/07/14 21:31:49;;;;;;;5.63;2.10;;;;;22.90;99928.00;;;;10102438;29;20212;-75
2023/07/14 21:36:51;;;;;;;4.47;2.65;;;;;23.00;99927.00;;;;10102914;29;20223;-78
2023/07/14 21:41:53;;;;;;;12.70;2.42;;;;;23.00;99937.00;;;;10102653;29;20208;-79
2023/07/14 21:46:54;;;;;;;6.82;2.40;;;;;23.00;99933.00;;;;10102425;29;20201;-74
2023/07/14 21:51:56;;;;;;;6.10;2.30;;;;;22.90;99927.00;;;;10086640;29;20200;-76
2023/07/14 21:56:58;;;;;;;5.55;2.20;;;;;22.80;99922.00;;;;10101871;29;20314;-75
2023/07/14 22:01:59;;;;;;;8.02;2.38;;;;;22.60;99918.00;;;;10100990;29;20219;-80
2023/07/14 22:07:08;;;;;;;7.22;2.55;;;;;22.50;99919.00;;;;10100815;29;20651;-80
2023/07/14 22:12:18;;;;;;;5.60;2.75;;;;;22.40;99913.00;;;;10085729;29;20299;-76
2023/07/14 22:17:19;;;;;;;5.85;2.42;;;;;22.40;99914.00;;;;10099996;29;20228;-74
2023/07/14 22:22:20;;;;;;;5.60;2.00;;;;;22.30;99913.00;;;;10101587;29;20236;-78
2023/07/14 22:27:22;;;;;;;5.53;2.67;;;;;22.30;99913.00;;;;10099826;29;20655;-75
2023/07/14 22:32:23;;;;;;;7.95;2.38;;;;;22.30;99910.00;;;;10101452;29;20230;-74
2023/07/14 22:37:24;;;;;;;4.40;2.00;;;;;22.30;99900.00;;;;10101237;29;20247;-75
2023/07/14 22:42:26;;;;;;;6.65;2.40;;;;;22.40;99895.00;;;;10100730;29;20200;-81
2023/07/14 22:47:27;;;;;;;5.88;2.20;;;;;22.50;99897.00;;;;10099168;29;20191;-79
2023/07/14 22:52:29;;;;;;;4.30;2.08;;;;;22.50;99895.00;;;;10100233;29;20200;-75
2023/07/14 22:57:30;;;;;;;5.88;1.90;;;;;22.50;99888.00;;;;10100470;29;20293;-74
2023/07/14 23:02:32;;;;;;;3.83;1.90;;;;;22.60;99892.00;;;;10085003;29;20299;-75
2023/07/14 23:07:33;;;;;;;6.60;1.90;;;;;22.70;99890.00;;;;10100110;29;20207;-81
2023/07/14 23:12:36;;;;;;;2.97;1.67;;;;;22.70;99894.00;;;;10099950;29;20216;-78
2023/07/14 23:17:37;;;;;;;5.85;1.65;;;;;22.90;99896.00;;;;10099685;29;20230;-75
2023/07/14 23:22:40;;;;;;;4.22;1.83;;;;;23.00;99905.00;;;;10099936;29;20654;-75
2023/07/14 23:27:42;;;;;;;5.53;1.77;;;;;23.20;99898.00;;;;10083434;29;20204;-78
2023/07/14 23:32:43;;;;;;;3.47;1.60;;;;;23.20;99902.00;;;;10099166;29;20232;-74
2023/07/14 23:37:45;;;;;;;3.00;1.30;;;;;23.10;99907.00;;;;10099680;29;20231;-79
2023/07/14 23:42:47;;;;;;;4.50;1.58;;;;;23.10;99910.00;;;;10099622;29;20529;-75
2023/07/14 23:47:49;;;;;;;4.28;1.52;;;;;22.90;99913.00;;;;10082356;29;20192;-75
2023/07/14 23:52:50;;;;;;;6.25;1.80;;;;;22.80;99906.00;;;;10099055;29;20192;-74
2023/07/14 23:57:57;;;;;;;4.05;1.50;;;;;22.60;99910.00;;;;10082980;29;20568;-75
